sensor_id;sensor_type;location;lat;lon;timestamp;P1;durP1;ratioP1;P2;durP2;ratioP2
16543;SDS011;8384;47.996;7.786;2023-03-13T00:01:56;3.10;;;1.33;;
16543;SDS011;8384;47.996;7.786;2023-03-13T00:04:22;2.63;;;1.08;;
16543;SDS011;8384;47.996;7.786;2023-03-13T00:06:47;3.40;;;1.13;;
16543;SDS011;8384;47.996;7.786;2023-03-13T00:09:14;2.13;;;1.08;;
16543;SDS011;8384;47.996;7.786;2023-03-13T00:11:40;3.10;;;1.10;;
16543;SDS011;8384;47.996;7.786;2023-03-13T00:14:06;2.50;;;1.10;;
16543;SDS011;8384;47.996;7.786;2023-03-13T00:16:32;1.80;;;1.00;;
16543;SDS011;8384;47.996;7.786;2023-03-13T00:19:04;2.80;;;1.10;;
16543;SDS011;8384;47.996;7.786;2023-03-13T00:21:33;2.67;;;1.30;;
16543;SDS011;8384;47.996;7.786;2023-03-13T00:24:01;2.88;;;1.13;;
16543;SDS011;8384;47.996;7.786;2023-03-13T00:26:27;3.17;;;1.23;;
16543;SDS011;8384;47.996;7.786;2023-03-13T00:28:52;2.30;;;0.90;;
16543;SDS011;8384;47.996;7.786;2023-03-13T00:31:19;2.05;;;0.95;;
16543;SDS011;8384;47.996;7.786;2023-03-13T00:33:47;2.75;;;1.05;;
16543;SDS011;8384;47.996;7.786;2023-03-13T00:36:15;3.47;;;1.10;;
16543;SDS011;8384;47.996;7.786;2023-03-13T00:38:42;2.42;;;0.90;;
16543;SDS011;8384;47.996;7.786;2023-03-13T00:41:08;2.90;;;1.10;;
16543;SDS011;8384;47.996;7.786;2023-03-13T00:43:39;2.38;;;0.95;;
16543;SDS011;8384;47.996;7.786;2023-03-13T00:46:05;2.97;;;1.10;;
16543;SDS011;8384;47.996;7.786;2023-03-13T00:48:31;2.78;;;1.10;;
16543;SDS011;8384;47.996;7.786;2023-03-13T00:50:57;1.85;;;0.85;;
16543;SDS011;8384;47.996;7.786;2023-03-13T00:53:23;2.33;;;1.02;;
16543;SDS011;8384;47.996;7.786;2023-03-13T00:58:31;2.40;;;1.00;;
16543;SDS011;8384;47.996;7.786;2023-03-13T01:01:09;2.47;;;0.98;;
16543;SDS011;8384;47.996;7.786;2023-03-13T01:03:47;3.17;;;1.00;;
16543;SDS011;8384;47.996;7.786;2023-03-13T01:06:19;2.38;;;1.00;;
16543;SDS011;8384;47.996;7.786;2023-03-13T01:08:47;1.50;;;0.90;;
16543;SDS011;8384;47.996;7.786;2023-03-13T01:11:13;2.45;;;0.93;;
16543;SDS011;8384;47.996;7.786;2023-03-13T01:13:43;2.08;;;0.93;;
16543;SDS011;8384;47.996;7.786;2023-03-13T01:16:10;1.58;;;0.88;;
16543;SDS011;8384;47.996;7.786;2023-03-13T01:18:38;2.38;;;1.10;;
16543;SDS011;8384;47.996;7.786;2023-03-13T01:21:05;2.25;;;0.93;;
16543;SDS011;8384;47.996;7.786;2023-03-13T01:23:31;2.08;;;1.00;;
16543;SDS011;8384;47.996;7.786;2023-03-13T01:25:57;2.13;;;0.87;;
16543;SDS011;8384;47.996;7.786;2023-03-13T01:28:23;2.30;;;1.03;;
16543;SDS011;8384;47.996;7.786;2023-03-13T01:30:49;1.60;;;0.93;;
16543;SDS011;8384;47.996;7.786;2023-03-13T01:33:14;3.20;;;1.17;;
16543;SDS011;8384;47.996;7.786;2023-03-13T01:35:40;2.22;;;1.00;;
16543;SDS011;8384;47.996;7.786;2023-03-13T01:38:05;2.83;;;1.00;;
16543;SDS011;8384;47.996;7.786;2023-03-13T01:40:31;2.17;;;1.07;;
16543;SDS011;8384;47.996;7.786;2023-03-13T01:43:11;2.65;;;1.15;;
16543;SDS011;8384;47.996;7.786;2023-03-13T01:45:56;2.17;;;1.00;;
16543;SDS011;8384;47.996;7.786;2023-03-13T01:48:24;2.08;;;0.80;;
16543;SDS011;8384;47.996;7.786;2023-03-13T01:50:54;2.50;;;1.00;;
16543;SDS011;8384;47.996;7.786;2023-03-13T01:53:24;2.28;;;1.00;;
16543;SDS011;8384;47.996;7.786;2023-03-13T01:55:50;2.22;;;1.08;;
16543;SDS011;8384;47.996;7.786;2023-03-13T01:58:17;1.70;;;0.88;;
16543;SDS011;8384;47.996;7.786;2023-03-13T02:00:42;2.22;;;1.00;;
16543;SDS011;8384;47.996;7.786;2023-03-13T02:03:10;3.22;;;1.10;;
16543;SDS011;8384;47.996;7.786;2023-03-13T02:05:38;1.42;;;0.90;;
16543;SDS011;8384;47.996;7.786;2023-03-13T02:08:07;2.30;;;0.95;;
16543;SDS011;8384;47.996;7.786;2023-03-13T02:10:41;1.50;;;0.95;;
16543;SDS011;8384;47.996;7.786;2023-03-13T02:13:14;1.70;;;0.90;;
16543;SDS011;8384;47.996;7.786;2023-03-13T02:15:41;1.95;;;0.95;;
16543;SDS011;8384;47.996;7.786;2023-03-13T02:18:06;2.00;;;0.90;;
16543;SDS011;8384;47.996;7.786;2023-03-13T02:20:32;1.97;;;1.00;;
16543;SDS011;8384;47.996;7.786;2023-03-13T02:25:46;2.10;;;1.05;;
16543;SDS011;8384;47.996;7.786;2023-03-13T02:30:50;2.05;;;0.93;;
16543;SDS011;8384;47.996;7.786;2023-03-13T02:33:19;1.63;;;1.07;;
16543;SDS011;8384;47.996;7.786;2023-03-13T02:35:46;2.40;;;1.10;;
16543;SDS011;8384;47.996;7.786;2023-03-13T02:38:14;2.08;;;1.10;;
16543;SDS011;8384;47.996;7.786;2023-03-13T02:40:44;2.22;;;1.02;;
16543;SDS011;8384;47.996;7.786;2023-03-13T02:43:15;2.13;;;1.00;;
16543;SDS011;8384;47.996;7.786;2023-03-13T02:46:01;2.03;;;1.20;;
16543;SDS011;8384;47.996;7.786;2023-03-13T02:48:39;3.28;;;1.10;;
16543;SDS011;8384;47.996;7.786;2023-03-13T02:54:16;2.00;;;1.00;;
16543;SDS011;8384;47.996;7.786;2023-03-13T02:56:51;2.22;;;0.90;;
16543;SDS011;8384;47.996;7.786;2023-03-13T02:59:20;2.17;;;1.00;;
16543;SDS011;8384;47.996;7.786;2023-03-13T03:01:46;1.75;;;1.05;;
16543;SDS011;8384;47.996;7.786;2023-03-13T03:04:11;1.90;;;1.17;;
16543;SDS011;8384;47.996;7.786;2023-03-13T03:06:36;2.50;;;1.10;;
16543;SDS011;8384;47.996;7.786;2023-03-13T03:09:02;2.85;;;1.30;;
16543;SDS011;8384;47.996;7.786;2023-03-13T03:11:28;2.43;;;1.30;;
16543;SDS011;8384;47.996;7.786;2023-03-13T03:13:53;3.90;;;1.40;;
16543;SDS011;8384;47.996;7.786;2023-03-13T03:16:18;2.93;;;1.23;;
16543;SDS011;8384;47.996;7.786;2023-03-13T03:18:44;2.20;;;1.30;;
16543;SDS011;8384;47.996;7.786;2023-03-13T03:21:10;2.20;;;1.20;;
16543;SDS011;8384;47.996;7.786;2023-03-13T03:23:36;2.00;;;1.00;;
16543;SDS011;8384;47.996;7.786;2023-03-13T03:26:02;2.10;;;1.10;;
16543;SDS011;8384;47.996;7.786;2023-03-13T03:28:30;2.22;;;1.33;;
16543;SDS011;8384;47.996;7.786;2023-03-13T03:30:56;2.57;;;1.20;;
16543;SDS011;8384;47.996;7.786;2023-03-13T03:33:22;2.50;;;1.17;;
16543;SDS011;8384;47.996;7.786;2023-03-13T03:35:48;3.05;;;1.50;;
16543;SDS011;8384;47.996;7.786;2023-03-13T03:38:14;2.97;;;1.30;;
16543;SDS011;8384;47.996;7.786;2023-03-13T03:40:40;3.28;;;1.20;;
16543;SDS011;8384;47.996;7.786;2023-03-13T03:43:05;2.73;;;1.30;;
16543;SDS011;8384;47.996;7.786;2023-03-13T03:45:30;2.87;;;1.20;;
16543;SDS011;8384;47.996;7.786;2023-03-13T03:47:55;2.57;;;1.17;;
16543;SDS011;8384;47.996;7.786;2023-03-13T03:50:24;2.75;;;1.17;;
16543;SDS011;8384;47.996;7.786;2023-03-13T03:52:52;2.75;;;1.40;;
16543;SDS011;8384;47.996;7.786;2023-03-13T03:55:18;2.23;;;1.20;;
16543;SDS011;8384;47.996;7.786;2023-03-13T03:57:43;2.63;;;1.30;;
16543;SDS011;8384;47.996;7.786;2023-03-13T04:00:09;2.83;;;1.10;;
16543;SDS011;8384;47.996;7.786;2023-03-13T04:02:40;2.08;;;1.00;;
16543;SDS011;8384;47.996;7.786;2023-03-13T04:05:06;2.90;;;1.00;;
16543;SDS011;8384;47.996;7.786;2023-03-13T04:07:31;2.15;;;0.98;;
16543;SDS011;8384;47.996;7.786;2023-03-13T04:09:57;1.40;;;0.90;;
16543;SDS011;8384;47.996;7.786;2023-03-13T04:12:22;1.53;;;1.00;;
16543;SDS011;8384;47.996;7.786;2023-03-13T04:14:47;2.50;;;1.00;;
16543;SDS011;8384;47.996;7.786;2023-03-13T04:17:13;2.17;;;0.83;;
16543;SDS011;8384;47.996;7.786;2023-03-13T04:19:38;1.65;;;0.93;;
16543;SDS011;8384;47.996;7.786;2023-03-13T04:22:04;1.70;;;0.90;;
16543;SDS011;8384;47.996;7.786;2023-03-13T04:24:29;1.57;;;0.70;;
16543;SDS011;8384;47.996;7.786;2023-03-13T04:26:54;1.30;;;0.77;;
16543;SDS011;8384;47.996;7.786;2023-03-13T04:29:20;1.50;;;0.80;;
16543;SDS011;8384;47.996;7.786;2023-03-13T04:31:45;1.27;;;0.70;;
16543;SDS011;8384;47.996;7.786;2023-03-13T04:34:10;1.77;;;0.70;;
16543;SDS011;8384;47.996;7.786;2023-03-13T04:36:36;1.23;;;0.60;;
16543;SDS011;8384;47.996;7.786;2023-03-13T04:39:01;1.33;;;0.80;;
16543;SDS011;8384;47.996;7.786;2023-03-13T04:41:27;1.47;;;0.60;;
16543;SDS011;8384;47.996;7.786;2023-03-13T04:43:52;1.13;;;0.70;;
16543;SDS011;8384;47.996;7.786;2023-03-13T04:46:17;2.00;;;0.70;;
16543;SDS011;8384;47.996;7.786;2023-03-13T04:48:43;1.30;;;0.70;;
16543;SDS011;8384;47.996;7.786;2023-03-13T04:51:09;1.80;;;0.60;;
16543;SDS011;8384;47.996;7.786;2023-03-13T04:53:34;1.20;;;0.60;;
16543;SDS011;8384;47.996;7.786;2023-03-13T04:55:59;1.20;;;0.70;;
16543;SDS011;8384;47.996;7.786;2023-03-13T04:58:24;1.53;;;0.73;;
16543;SDS011;8384;47.996;7.786;2023-03-13T05:00:51;1.50;;;0.80;;
16543;SDS011;8384;47.996;7.786;2023-03-13T05:03:17;1.48;;;0.80;;
16543;SDS011;8384;47.996;7.786;2023-03-13T05:05:42;2.87;;;1.03;;
16543;SDS011;8384;47.996;7.786;2023-03-13T05:08:07;1.93;;;0.80;;
16543;SDS011;8384;47.996;7.786;2023-03-13T05:10:34;1.37;;;0.90;;
16543;SDS011;8384;47.996;7.786;2023-03-13T05:13:00;1.93;;;0.97;;
16543;SDS011;8384;47.996;7.786;2023-03-13T05:15:25;1.70;;;0.80;;
16543;SDS011;8384;47.996;7.786;2023-03-13T05:17:50;1.60;;;0.80;;
16543;SDS011;8384;47.996;7.786;2023-03-13T05:20:15;2.60;;;0.93;;
16543;SDS011;8384;47.996;7.786;2023-03-13T05:22:41;1.90;;;0.90;;
16543;SDS011;8384;47.996;7.786;2023-03-13T05:25:06;1.70;;;0.90;;
16543;SDS011;8384;47.996;7.786;2023-03-13T05:27:32;2.27;;;0.90;;
16543;SDS011;8384;47.996;7.786;2023-03-13T05:29:57;1.47;;;0.80;;
16543;SDS011;8384;47.996;7.786;2023-03-13T05:32:22;1.80;;;0.90;;
16543;SDS011;8384;47.996;7.786;2023-03-13T05:34:47;1.00;;;0.70;;
16543;SDS011;8384;47.996;7.786;2023-03-13T05:37:13;1.47;;;0.80;;
16543;SDS011;8384;47.996;7.786;2023-03-13T05:39:38;1.67;;;0.80;;
16543;SDS011;8384;47.996;7.786;2023-03-13T05:42:03;1.48;;;0.80;;
16543;SDS011;8384;47.996;7.786;2023-03-13T05:44:28;1.60;;;0.85;;
16543;SDS011;8384;47.996;7.786;2023-03-13T05:46:54;1.90;;;0.90;;
16543;SDS011;8384;47.996;7.786;2023-03-13T05:49:19;1.40;;;0.80;;
16543;SDS011;8384;47.996;7.786;2023-03-13T05:51:44;1.97;;;0.90;;
16543;SDS011;8384;47.996;7.786;2023-03-13T05:54:10;1.77;;;0.77;;
16543;SDS011;8384;47.996;7.786;2023-03-13T05:56:35;2.53;;;0.80;;
16543;SDS011;8384;47.996;7.786;2023-03-13T05:59:00;1.53;;;0.70;;
16543;SDS011;8384;47.996;7.786;2023-03-13T06:01:26;2.13;;;0.90;;
16543;SDS011;8384;47.996;7.786;2023-03-13T06:03:51;1.93;;;0.97;;
16543;SDS011;8384;47.996;7.786;2023-03-13T06:06:16;1.77;;;0.90;;
16543;SDS011;8384;47.996;7.786;2023-03-13T06:08:41;1.80;;;0.80;;
16543;SDS011;8384;47.996;7.786;2023-03-13T06:11:07;1.30;;;0.60;;
16543;SDS011;8384;47.996;7.786;2023-03-13T06:13:32;1.60;;;0.70;;
16543;SDS011;8384;47.996;7.786;2023-03-13T06:15:58;1.17;;;0.70;;
16543;SDS011;8384;47.996;7.786;2023-03-13T06:18:23;1.20;;;0.80;;
16543;SDS011;8384;47.996;7.786;2023-03-13T06:20:49;1.33;;;0.63;;
16543;SDS011;8384;47.996;7.786;2023-03-13T06:23:20;1.80;;;0.80;;
16543;SDS011;8384;47.996;7.786;2023-03-13T06:25:46;1.40;;;0.60;;
16543;SDS011;8384;47.996;7.786;2023-03-13T06:28:12;2.20;;;0.75;;
16543;SDS011;8384;47.996;7.786;2023-03-13T06:30:37;1.65;;;0.63;;
16543;SDS011;8384;47.996;7.786;2023-03-13T06:33:03;2.03;;;0.70;;
16543;SDS011;8384;47.996;7.786;2023-03-13T06:35:28;1.57;;;0.70;;
16543;SDS011;8384;47.996;7.786;2023-03-13T06:37:53;1.60;;;0.70;;
16543;SDS011;8384;47.996;7.786;2023-03-13T06:40:18;1.50;;;0.80;;
16543;SDS011;8384;47.996;7.786;2023-03-13T06:42:44;0.87;;;0.67;;
16543;SDS011;8384;47.996;7.786;2023-03-13T06:45:09;1.40;;;0.77;;
16543;SDS011;8384;47.996;7.786;2023-03-13T06:47:35;1.10;;;0.53;;
16543;SDS011;8384;47.996;7.786;2023-03-13T06:50:00;0.87;;;0.50;;
16543;SDS011;8384;47.996;7.786;2023-03-13T06:52:25;1.70;;;0.60;;
16543;SDS011;8384;47.996;7.786;2023-03-13T06:54:50;1.10;;;0.70;;
16543;SDS011;8384;47.996;7.786;2023-03-13T06:57:16;1.13;;;0.50;;
16543;SDS011;8384;47.996;7.786;2023-03-13T06:59:41;0.85;;;0.47;;
16543;SDS011;8384;47.996;7.786;2023-03-13T07:02:08;1.17;;;0.50;;
16543;SDS011;8384;47.996;7.786;2023-03-13T07:04:35;1.00;;;0.60;;
16543;SDS011;8384;47.996;7.786;2023-03-13T07:07:00;1.55;;;0.63;;
16543;SDS011;8384;47.996;7.786;2023-03-13T07:09:25;0.50;;;0.33;;
16543;SDS011;8384;47.996;7.786;2023-03-13T07:11:50;1.33;;;0.50;;
16543;SDS011;8384;47.996;7.786;2023-03-13T07:14:16;0.87;;;0.63;;
16543;SDS011;8384;47.996;7.786;2023-03-13T07:16:41;0.87;;;0.47;;
16543;SDS011;8384;47.996;7.786;2023-03-13T07:19:07;1.70;;;0.50;;
16543;SDS011;8384;47.996;7.786;2023-03-13T07:21:32;0.80;;;0.57;;
16543;SDS011;8384;47.996;7.786;2023-03-13T07:23:57;1.27;;;0.60;;
16543;SDS011;8384;47.996;7.786;2023-03-13T07:26:23;2.20;;;0.60;;
16543;SDS011;8384;47.996;7.786;2023-03-13T07:28:48;1.43;;;0.70;;
16543;SDS011;8384;47.996;7.786;2023-03-13T07:31:17;1.23;;;0.53;;
16543;SDS011;8384;47.996;7.786;2023-03-13T07:33:44;1.20;;;0.50;;
16543;SDS011;8384;47.996;7.786;2023-03-13T07:36:10;0.60;;;0.50;;
16543;SDS011;8384;47.996;7.786;2023-03-13T07:38:36;0.60;;;0.50;;
16543;SDS011;8384;47.996;7.786;2023-03-13T07:41:01;1.30;;;0.57;;
16543;SDS011;8384;47.996;7.786;2023-03-13T07:43:28;0.87;;;0.60;;
16543;SDS011;8384;47.996;7.786;2023-03-13T07:45:56;1.08;;;0.50;;
16543;SDS011;8384;47.996;7.786;2023-03-13T07:48:22;1.13;;;0.52;;
16543;SDS011;8384;47.996;7.786;2023-03-13T07:50:55;0.70;;;0.50;;
16543;SDS011;8384;47.996;7.786;2023-03-13T07:53:21;0.97;;;0.60;;
16543;SDS011;8384;47.996;7.786;2023-03-13T07:55:53;2.17;;;1.23;;
16543;SDS011;8384;47.996;7.786;2023-03-13T07:58:20;0.77;;;0.60;;
16543;SDS011;8384;47.996;7.786;2023-03-13T08:00:46;0.90;;;0.50;;
16543;SDS011;8384;47.996;7.786;2023-03-13T08:03:11;0.80;;;0.60;;
16543;SDS011;8384;47.996;7.786;2023-03-13T08:05:37;2.50;;;0.60;;
16543;SDS011;8384;47.996;7.786;2023-03-13T08:08:02;0.80;;;0.40;;
16543;SDS011;8384;47.996;7.786;2023-03-13T08:10:27;0.80;;;0.50;;
16543;SDS011;8384;47.996;7.786;2023-03-13T08:12:54;0.65;;;0.50;;
16543;SDS011;8384;47.996;7.786;2023-03-13T08:15:19;1.33;;;0.57;;
16543;SDS011;8384;47.996;7.786;2023-03-13T08:17:49;1.23;;;0.50;;
16543;SDS011;8384;47.996;7.786;2023-03-13T08:20:15;1.38;;;0.50;;
16543;SDS011;8384;47.996;7.786;2023-03-13T08:22:41;1.42;;;0.70;;
16543;SDS011;8384;47.996;7.786;2023-03-13T08:25:06;0.80;;;0.50;;
16543;SDS011;8384;47.996;7.786;2023-03-13T08:27:32;1.27;;;0.60;;
16543;SDS011;8384;47.996;7.786;2023-03-13T08:29:57;1.07;;;0.57;;
16543;SDS011;8384;47.996;7.786;2023-03-13T08:32:22;0.80;;;0.47;;
16543;SDS011;8384;47.996;7.786;2023-03-13T08:34:47;0.80;;;0.50;;
16543;SDS011;8384;47.996;7.786;2023-03-13T08:37:16;0.97;;;0.50;;
16543;SDS011;8384;47.996;7.786;2023-03-13T08:39:41;1.40;;;0.60;;
16543;SDS011;8384;47.996;7.786;2023-03-13T08:42:09;0.98;;;0.50;;
16543;SDS011;8384;47.996;7.786;2023-03-13T08:44:35;1.35;;;0.60;;
16543;SDS011;8384;47.996;7.786;2023-03-13T08:47:01;1.70;;;0.50;;
16543;SDS011;8384;47.996;7.786;2023-03-13T08:49:26;1.33;;;0.60;;
16543;SDS011;8384;47.996;7.786;2023-03-13T08:51:51;1.07;;;0.70;;
16543;SDS011;8384;47.996;7.786;2023-03-13T08:54:17;1.00;;;0.50;;
16543;SDS011;8384;47.996;7.786;2023-03-13T08:56:42;1.07;;;0.60;;
16543;SDS011;8384;47.996;7.786;2023-03-13T08:59:08;1.20;;;0.50;;
16543;SDS011;8384;47.996;7.786;2023-03-13T09:01:34;0.70;;;0.40;;
16543;SDS011;8384;47.996;7.786;2023-03-13T09:04:00;0.85;;;0.50;;
16543;SDS011;8384;47.996;7.786;2023-03-13T09:06:26;1.00;;;0.60;;
16543;SDS011;8384;47.996;7.786;2023-03-13T09:08:51;1.03;;;0.57;;
16543;SDS011;8384;47.996;7.786;2023-03-13T09:11:17;0.97;;;0.50;;
16543;SDS011;8384;47.996;7.786;2023-03-13T09:13:45;0.63;;;0.60;;
16543;SDS011;8384;47.996;7.786;2023-03-13T09:16:19;0.70;;;0.52;;
16543;SDS011;8384;47.996;7.786;2023-03-13T09:18:46;0.90;;;0.50;;
16543;SDS011;8384;47.996;7.786;2023-03-13T09:21:12;0.60;;;0.50;;
16543;SDS011;8384;47.996;7.786;2023-03-13T09:23:45;0.80;;;0.50;;
16543;SDS011;8384;47.996;7.786;2023-03-13T09:26:12;1.20;;;0.40;;
16543;SDS011;8384;47.996;7.786;2023-03-13T09:28:38;0.85;;;0.57;;
16543;SDS011;8384;47.996;7.786;2023-03-13T09:31:10;1.30;;;0.70;;
16543;SDS011;8384;47.996;7.786;2023-03-13T09:33:36;0.82;;;0.60;;
16543;SDS011;8384;47.996;7.786;2023-03-13T09:36:02;1.42;;;0.50;;
16543;SDS011;8384;47.996;7.786;2023-03-13T09:38:27;1.38;;;0.60;;
16543;SDS011;8384;47.996;7.786;2023-03-13T09:40:53;1.33;;;0.60;;
16543;SDS011;8384;47.996;7.786;2023-03-13T09:49:15;0.60;;;0.50;;
16543;SDS011;8384;47.996;7.786;2023-03-13T09:52:09;1.13;;;0.50;;
16543;SDS011;8384;47.996;7.786;2023-03-13T09:54:45;0.98;;;0.63;;
16543;SDS011;8384;47.996;7.786;2023-03-13T09:59:51;0.63;;;0.50;;
16543;SDS011;8384;47.996;7.786;2023-03-13T10:07:45;1.30;;;0.65;;
16543;SDS011;8384;47.996;7.786;2023-03-13T10:12:51;1.50;;;0.75;;
16543;SDS011;8384;47.996;7.786;2023-03-13T10:15:40;1.10;;;0.60;;
16543;SDS011;8384;47.996;7.786;2023-03-13T10:18:13;1.50;;;0.50;;
16543;SDS011;8384;47.996;7.786;2023-03-13T10:20:42;0.70;;;0.50;;
16543;SDS011;8384;47.996;7.786;2023-03-13T10:25:47;0.90;;;0.70;;
16543;SDS011;8384;47.996;7.786;2023-03-13T10:28:13;1.00;;;0.50;;
16543;SDS011;8384;47.996;7.786;2023-03-13T10:30:50;1.13;;;0.70;;
16543;SDS011;8384;47.996;7.786;2023-03-13T10:33:23;0.60;;;0.50;;
16543;SDS011;8384;47.996;7.786;2023-03-13T10:36:07;1.23;;;0.50;;
16543;SDS011;8384;47.996;7.786;2023-03-13T10:38:44;0.88;;;0.50;;
16543;SDS011;8384;47.996;7.786;2023-03-13T10:41:34;1.73;;;0.60;;
16543;SDS011;8384;47.996;7.786;2023-03-13T10:44:05;0.63;;;0.50;;
16543;SDS011;8384;47.996;7.786;2023-03-13T10:46:42;1.30;;;0.60;;
16543;SDS011;8384;47.996;7.786;2023-03-13T10:49:22;0.90;;;0.60;;
16543;SDS011;8384;47.996;7.786;2023-03-13T10:51:52;1.10;;;0.60;;
16543;SDS011;8384;47.996;7.786;2023-03-13T10:56:49;1.10;;;0.52;;
16543;SDS011;8384;47.996;7.786;2023-03-13T10:59:22;1.48;;;0.57;;
16543;SDS011;8384;47.996;7.786;2023-03-13T11:01:50;0.87;;;0.50;;
16543;SDS011;8384;47.996;7.786;2023-03-13T11:04:24;0.60;;;0.40;;
16543;SDS011;8384;47.996;7.786;2023-03-13T11:06:57;1.20;;;0.40;;
16543;SDS011;8384;47.996;7.786;2023-03-13T11:09:26;1.00;;;0.40;;
16543;SDS011;8384;47.996;7.786;2023-03-13T11:11:52;0.83;;;0.50;;
16543;SDS011;8384;47.996;7.786;2023-03-13T11:14:20;1.45;;;0.60;;
16543;SDS011;8384;47.996;7.786;2023-03-13T11:16:48;0.55;;;0.50;;
16543;SDS011;8384;47.996;7.786;2023-03-13T11:19:28;0.50;;;0.40;;
16543;SDS011;8384;47.996;7.786;2023-03-13T11:22:08;1.33;;;0.60;;
16543;SDS011;8384;47.996;7.786;2023-03-13T11:24:48;0.80;;;0.60;;
16543;SDS011;8384;47.996;7.786;2023-03-13T11:27:29;0.57;;;0.50;;
16543;SDS011;8384;47.996;7.786;2023-03-13T11:32:55;1.00;;;0.40;;
16543;SDS011;8384;47.996;7.786;2023-03-13T11:35:34;0.93;;;0.52;;
16543;SDS011;8384;47.996;7.786;2023-03-13T11:38:07;2.10;;;0.60;;
16543;SDS011;8384;47.996;7.786;2023-03-13T11:41:00;1.65;;;0.50;;
16543;SDS011;8384;47.996;7.786;2023-03-13T11:43:31;1.42;;;0.47;;
16543;SDS011;8384;47.996;7.786;2023-03-13T11:46:13;0.60;;;0.57;;
16543;SDS011;8384;47.996;7.786;2023-03-13T11:57:04;0.90;;;0.50;;
16543;SDS011;8384;47.996;7.786;2023-03-13T12:02:34;0.50;;;0.40;;
16543;SDS011;8384;47.996;7.786;2023-03-13T12:05:06;0.75;;;0.50;;
16543;SDS011;8384;47.996;7.786;2023-03-13T12:10:04;0.70;;;0.50;;
16543;SDS011;8384;47.996;7.786;2023-03-13T12:12:39;1.05;;;0.60;;
16543;SDS011;8384;47.996;7.786;2023-03-13T12:17:49;1.23;;;0.55;;
16543;SDS011;8384;47.996;7.786;2023-03-13T12:25:45;1.20;;;0.50;;
16543;SDS011;8384;47.996;7.786;2023-03-13T12:33:53;0.70;;;0.45;;
16543;SDS011;8384;47.996;7.786;2023-03-13T12:36:28;0.90;;;0.55;;
16543;SDS011;8384;47.996;7.786;2023-03-13T12:41:46;0.95;;;0.50;;
16543;SDS011;8384;47.996;7.786;2023-03-13T12:44:21;1.33;;;0.68;;
16543;SDS011;8384;47.996;7.786;2023-03-13T12:47:07;1.27;;;0.57;;
16543;SDS011;8384;47.996;7.786;2023-03-13T13:00:42;0.70;;;0.50;;
16543;SDS011;8384;47.996;7.786;2023-03-13T13:05:56;0.98;;;0.60;;
16543;SDS011;8384;47.996;7.786;2023-03-13T13:08:24;1.20;;;0.65;;
16543;SDS011;8384;47.996;7.786;2023-03-13T13:10:50;1.65;;;0.60;;
16543;SDS011;8384;47.996;7.786;2023-03-13T13:13:17;1.25;;;0.57;;
16543;SDS011;8384;47.996;7.786;2023-03-13T13:15:58;0.87;;;0.60;;
16543;SDS011;8384;47.996;7.786;2023-03-13T13:18:27;1.30;;;0.60;;
16543;SDS011;8384;47.996;7.786;2023-03-13T13:23:29;1.10;;;0.68;;
16543;SDS011;8384;47.996;7.786;2023-03-13T13:26:36;0.70;;;0.60;;
16543;SDS011;8384;47.996;7.786;2023-03-13T13:28:55;1.27;;;0.73;;
16543;SDS011;8384;47.996;7.786;2023-03-13T13:34:06;1.50;;;0.80;;
16543;SDS011;8384;47.996;7.786;2023-03-13T13:36:39;1.13;;;0.77;;
16543;SDS011;8384;47.996;7.786;2023-03-13T13:39:19;1.17;;;0.77;;
16543;SDS011;8384;47.996;7.786;2023-03-13T13:41:56;2.00;;;0.80;;
16543;SDS011;8384;47.996;7.786;2023-03-13T13:44:28;0.73;;;0.60;;
16543;SDS011;8384;47.996;7.786;2023-03-13T13:46:54;1.23;;;0.55;;
16543;SDS011;8384;47.996;7.786;2023-03-13T13:49:24;1.08;;;0.60;;
16543;SDS011;8384;47.996;7.786;2023-03-13T13:54:31;1.30;;;0.80;;
16543;SDS011;8384;47.996;7.786;2023-03-13T13:57:18;1.55;;;0.73;;
16543;SDS011;8384;47.996;7.786;2023-03-13T13:59:48;1.58;;;0.60;;
16543;SDS011;8384;47.996;7.786;2023-03-13T14:02:18;1.20;;;0.75;;
16543;SDS011;8384;47.996;7.786;2023-03-13T14:05:03;0.85;;;0.65;;
16543;SDS011;8384;47.996;7.786;2023-03-13T14:15:47;1.05;;;0.80;;
16543;SDS011;8384;47.996;7.786;2023-03-13T14:18:21;1.25;;;0.75;;
16543;SDS011;8384;47.996;7.786;2023-03-13T14:23:32;2.50;;;0.88;;
16543;SDS011;8384;47.996;7.786;2023-03-13T14:28:44;2.10;;;0.70;;
16543;SDS011;8384;47.996;7.786;2023-03-13T14:31:31;1.48;;;0.80;;
16543;SDS011;8384;47.996;7.786;2023-03-13T14:33:59;0.95;;;0.65;;
16543;SDS011;8384;47.996;7.786;2023-03-13T14:36:25;1.75;;;0.70;;
16543;SDS011;8384;47.996;7.786;2023-03-13T14:38:58;1.42;;;0.70;;
16543;SDS011;8384;47.996;7.786;2023-03-13T14:41:29;1.80;;;0.80;;
16543;SDS011;8384;47.996;7.786;2023-03-13T14:44:04;1.60;;;0.80;;
16543;SDS011;8384;47.996;7.786;2023-03-13T14:46:34;1.57;;;0.80;;
16543;SDS011;8384;47.996;7.786;2023-03-13T14:49:05;1.02;;;0.80;;
16543;SDS011;8384;47.996;7.786;2023-03-13T14:51:35;2.33;;;0.93;;
16543;SDS011;8384;47.996;7.786;2023-03-13T14:54:02;2.25;;;0.85;;
16543;SDS011;8384;47.996;7.786;2023-03-13T14:56:32;1.97;;;0.87;;
16543;SDS011;8384;47.996;7.786;2023-03-13T14:59:05;1.38;;;0.70;;
16543;SDS011;8384;47.996;7.786;2023-03-13T15:01:32;1.40;;;0.70;;
16543;SDS011;8384;47.996;7.786;2023-03-13T15:03:58;2.72;;;0.90;;
16543;SDS011;8384;47.996;7.786;2023-03-13T15:06:24;1.58;;;0.80;;
16543;SDS011;8384;47.996;7.786;2023-03-13T15:11:34;2.70;;;0.80;;
16543;SDS011;8384;47.996;7.786;2023-03-13T15:14:28;1.13;;;0.60;;
16543;SDS011;8384;47.996;7.786;2023-03-13T15:17:02;1.60;;;0.77;;
16543;SDS011;8384;47.996;7.786;2023-03-13T15:19:34;1.92;;;0.60;;
16543;SDS011;8384;47.996;7.786;2023-03-13T15:21:59;1.73;;;0.60;;
16543;SDS011;8384;47.996;7.786;2023-03-13T15:24:24;1.80;;;0.70;;
16543;SDS011;8384;47.996;7.786;2023-03-13T15:26:49;0.70;;;0.57;;
16543;SDS011;8384;47.996;7.786;2023-03-13T15:29:15;1.27;;;0.60;;
16543;SDS011;8384;47.996;7.786;2023-03-13T15:31:42;0.77;;;0.50;;
16543;SDS011;8384;47.996;7.786;2023-03-13T15:34:11;0.63;;;0.55;;
16543;SDS011;8384;47.996;7.786;2023-03-13T15:36:38;0.70;;;0.57;;
16543;SDS011;8384;47.996;7.786;2023-03-13T15:39:12;2.17;;;0.60;;
16543;SDS011;8384;47.996;7.786;2023-03-13T15:41:43;0.50;;;0.50;;
16543;SDS011;8384;47.996;7.786;2023-03-13T15:44:08;2.63;;;0.80;;
16543;SDS011;8384;47.996;7.786;2023-03-13T15:46:34;1.00;;;0.67;;
16543;SDS011;8384;47.996;7.786;2023-03-13T15:48:59;0.97;;;0.50;;
16543;SDS011;8384;47.996;7.786;2023-03-13T15:51:24;0.70;;;0.70;;
16543;SDS011;8384;47.996;7.786;2023-03-13T15:53:51;1.65;;;0.73;;
16543;SDS011;8384;47.996;7.786;2023-03-13T15:56:18;0.80;;;0.60;;
16543;SDS011;8384;47.996;7.786;2023-03-13T15:58:47;1.10;;;0.57;;
16543;SDS011;8384;47.996;7.786;2023-03-13T16:01:14;0.60;;;0.50;;
16543;SDS011;8384;47.996;7.786;2023-03-13T16:03:41;1.10;;;0.50;;
16543;SDS011;8384;47.996;7.786;2023-03-13T16:06:11;0.68;;;0.57;;
16543;SDS011;8384;47.996;7.786;2023-03-13T16:08:41;1.60;;;0.60;;
16543;SDS011;8384;47.996;7.786;2023-03-13T16:11:08;0.80;;;0.50;;
16543;SDS011;8384;47.996;7.786;2023-03-13T16:13:36;0.90;;;0.50;;
16543;SDS011;8384;47.996;7.786;2023-03-13T16:16:01;1.27;;;0.60;;
16543;SDS011;8384;47.996;7.786;2023-03-13T16:18:26;1.57;;;0.70;;
16543;SDS011;8384;47.996;7.786;2023-03-13T16:20:52;1.70;;;0.60;;
16543;SDS011;8384;47.996;7.786;2023-03-13T16:23:17;1.00;;;0.53;;
16543;SDS011;8384;47.996;7.786;2023-03-13T16:25:43;2.50;;;0.60;;
16543;SDS011;8384;47.996;7.786;2023-03-13T16:28:10;1.30;;;0.60;;
16543;SDS011;8384;47.996;7.786;2023-03-13T16:30:37;1.42;;;0.60;;
16543;SDS011;8384;47.996;7.786;2023-03-13T16:33:07;1.45;;;0.70;;
16543;SDS011;8384;47.996;7.786;2023-03-13T16:35:33;1.00;;;0.60;;
16543;SDS011;8384;47.996;7.786;2023-03-13T16:37:59;0.70;;;0.50;;
16543;SDS011;8384;47.996;7.786;2023-03-13T16:40:25;1.23;;;0.60;;
16543;SDS011;8384;47.996;7.786;2023-03-13T16:42:53;1.00;;;0.50;;
16543;SDS011;8384;47.996;7.786;2023-03-13T16:45:18;0.97;;;0.50;;
16543;SDS011;8384;47.996;7.786;2023-03-13T16:47:44;0.63;;;0.60;;
16543;SDS011;8384;47.996;7.786;2023-03-13T16:52:41;0.93;;;0.50;;
16543;SDS011;8384;47.996;7.786;2023-03-13T16:55:07;0.70;;;0.70;;